createdAt,value
2019-01-15T00:01:09.394Z,0
2019-01-15T00:02:19.413Z,0
2019-01-15T00:03:29.337Z,0
2019-01-15T00:04:39.259Z,0
2019-01-15T00:05:48.930Z,0
2019-01-15T00:06:58.596Z,0
2019-01-15T00:08:08.266Z,0
2019-01-15T00:09:17.678Z,0
2019-01-15T00:10:27.348Z,0
2019-01-15T00:11:37.024Z,0
2019-01-15T00:12:46.442Z,0
2019-01-15T00:13:56.113Z,0
2019-01-15T00:15:06.042Z,0
2019-01-15T00:16:15.212Z,0
2019-01-15T00:17:24.881Z,0
2019-01-15T00:18:34.545Z,0
2019-01-15T00:19:43.972Z,0
2019-01-15T00:20:53.393Z,0
2019-01-15T00:22:03.069Z,0
2019-01-15T00:23:12.985Z,0
2019-01-15T00:24:22.400Z,0
2019-01-15T00:25:32.076Z,0
2019-01-15T00:26:41.499Z,0
2019-01-15T00:27:51.370Z,0
2019-01-15T00:29:00.802Z,0
2019-01-15T00:30:10.467Z,0
2019-01-15T00:31:19.885Z,0
2019-01-15T00:32:29.819Z,0
2019-01-15T00:33:39.746Z,0
2019-01-15T00:34:48.910Z,0
2019-01-15T00:35:58.580Z,0
2019-01-15T00:37:08.246Z,0
2019-01-15T00:38:17.920Z,0
2019-01-15T00:39:27.595Z,0
2019-01-15T00:40:37.267Z,0
2019-01-15T00:41:46.937Z,0
2019-01-15T00:42:56.612Z,0
2019-01-15T00:44:06.287Z,0
2019-01-15T00:45:15.960Z,0
2019-01-15T00:46:25.410Z,0
2019-01-15T00:47:34.594Z,0
2019-01-15T00:48:44.512Z,0
2019-01-15T00:49:54.431Z,0
2019-01-15T00:51:03.602Z,0
2019-01-15T00:52:13.027Z,0
2019-01-15T00:53:22.945Z,0
2019-01-15T00:54:32.878Z,0
2019-01-15T00:55:42.352Z,0
2019-01-15T00:56:52.038Z,0
2019-01-15T00:58:01.251Z,0
2019-01-15T00:59:10.931Z,0
2019-01-15T01:00:20.596Z,0
2019-01-15T01:01:30.262Z,0
2019-01-15T01:02:40.178Z,0
2019-01-15T01:03:49.848Z,0
2019-01-15T01:04:59.515Z,0
2019-01-15T01:06:08.985Z,0
2019-01-15T01:07:18.410Z,0
2019-01-15T01:08:28.332Z,0
2019-01-15T01:09:37.996Z,0
2019-01-15T01:10:47.915Z,0
2019-01-15T01:11:57.327Z,0
2019-01-15T01:13:07.251Z,0
2019-01-15T01:14:16.685Z,0
2019-01-15T01:15:26.108Z,0
2019-01-15T01:16:36.048Z,0
2019-01-15T01:17:45.972Z,0
2019-01-15T01:18:55.643Z,0
2019-01-15T01:20:04.909Z,0
2019-01-15T01:21:14.574Z,0
2019-01-15T01:22:24.492Z,0
2019-01-15T01:23:40.475Z,0
2019-01-15T01:24:50.139Z,0
2019-01-15T01:25:59.572Z,0
2019-01-15T01:27:09.244Z,0
2019-01-15T01:28:18.915Z,0
2019-01-15T01:29:28.379Z,0
2019-01-15T01:30:38.046Z,0
2019-01-15T01:31:47.970Z,0
2019-01-15T01:32:57.640Z,0
2019-01-15T01:34:07.312Z,0
2019-01-15T01:35:16.987Z,0
2019-01-15T01:36:26.658Z,0
2019-01-15T01:37:36.080Z,0
2019-01-15T01:38:45.251Z,0
2019-01-15T01:39:54.670Z,0
2019-01-15T01:41:04.400Z,0
2019-01-15T01:42:14.333Z,0
2019-01-15T01:43:23.505Z,0
2019-01-15T01:44:32.927Z,0
2019-01-15T01:45:42.352Z,0
2019-01-15T01:46:52.271Z,0
2019-01-15T01:48:02.202Z,0
2019-01-15T01:49:11.870Z,0
2019-01-15T01:50:21.795Z,0
2019-01-15T01:51:31.459Z,0
2019-01-15T01:52:40.900Z,0
2019-01-15T01:53:50.321Z,0
2019-01-15T01:55:00.275Z,0
2019-01-15T01:56:10.202Z,0
2019-01-15T01:57:19.881Z,0
2019-01-15T01:58:29.305Z,0
2019-01-15T01:59:38.986Z,0
2019-01-15T02:00:48.658Z,0
2019-01-15T02:01:58.106Z,0
2019-01-15T02:03:07.524Z,0
2019-01-15T02:04:16.946Z,0
2019-01-15T02:05:26.621Z,0
2019-01-15T02:06:36.052Z,0
2019-01-15T02:07:45.988Z,0
2019-01-15T02:08:55.663Z,0
2019-01-15T02:10:05.086Z,0
2019-01-15T02:11:15.023Z,0
2019-01-15T02:12:24.441Z,0
2019-01-15T02:13:34.359Z,0
2019-01-15T02:14:43.783Z,0
2019-01-15T02:15:53.453Z,0
2019-01-15T02:17:03.138Z,0
2019-01-15T02:18:12.816Z,0
2019-01-15T02:19:22.496Z,0
2019-01-15T02:20:32.411Z,0
2019-01-15T02:21:41.335Z,0
2019-01-15T02:22:51.259Z,0
2019-01-15T02:24:00.928Z,0
2019-01-15T02:25:10.598Z,0
2019-01-15T02:26:20.269Z,0
2019-01-15T02:27:29.750Z,0
2019-01-15T02:28:39.669Z,0
2019-01-15T02:29:48.854Z,0
2019-01-15T02:30:58.268Z,0
2019-01-15T02:32:07.940Z,0
2019-01-15T02:33:17.114Z,0
2019-01-15T02:34:27.036Z,0
2019-01-15T02:35:36.725Z,0
2019-01-15T02:36:46.412Z,0
2019-01-15T02:37:56.087Z,0
2019-01-15T02:39:06.019Z,0
2019-01-15T02:40:15.700Z,0
2019-01-15T02:41:25.379Z,0
2019-01-15T02:42:34.815Z,0
2019-01-15T02:44:51.201Z,0
2019-01-15T02:46:00.876Z,0
2019-01-15T02:47:09.810Z,0
2019-01-15T02:48:19.741Z,0
2019-01-15T02:49:29.179Z,0
2019-01-15T02:50:38.879Z,0
2019-01-15T02:51:48.304Z,0
2019-01-15T02:52:58.224Z,0
2019-01-15T02:54:08.451Z,0
2019-01-15T02:55:18.383Z,0
2019-01-15T02:56:28.311Z,0
2019-01-15T02:57:37.993Z,0
2019-01-15T02:58:47.921Z,0
2019-01-15T02:59:57.595Z,0
2019-01-15T03:01:07.137Z,0
2019-01-15T03:02:16.567Z,0
2019-01-15T03:03:26.251Z,0
2019-01-15T03:04:36.189Z,0
2019-01-15T03:05:45.860Z,0
2019-01-15T03:06:55.297Z,0
2019-01-15T03:08:05.219Z,0
2019-01-15T03:09:15.153Z,0
2019-01-15T03:10:24.829Z,0
2019-01-15T03:11:34.494Z,0
2019-01-15T03:12:43.919Z,0
2019-01-15T03:13:53.617Z,0
2019-01-15T03:15:03.057Z,0
2019-01-15T03:16:12.741Z,0
2019-01-15T03:17:22.178Z,0
2019-01-15T03:18:32.107Z,0
2019-01-15T03:19:41.791Z,0
2019-01-15T03:20:50.980Z,0
2019-01-15T03:22:00.903Z,0
2019-01-15T03:23:10.336Z,0
2019-01-15T03:24:20.009Z,0
2019-01-15T03:25:29.439Z,0
2019-01-15T03:26:39.383Z,0
2019-01-15T03:27:48.810Z,0
2019-01-15T03:28:58.749Z,0
2019-01-15T03:30:08.186Z,0
2019-01-15T03:31:17.884Z,0
2019-01-15T03:32:27.850Z,0
2019-01-15T03:33:37.275Z,0
2019-01-15T03:34:46.977Z,0
2019-01-15T03:35:56.656Z,0
2019-01-15T03:37:05.824Z,0
2019-01-15T03:38:15.751Z,0
2019-01-15T03:39:25.442Z,0
2019-01-15T03:40:35.389Z,0
2019-01-15T03:41:44.824Z,0
2019-01-15T03:42:54.253Z,0
2019-01-15T03:44:03.930Z,0
2019-01-15T03:45:14.487Z,0
2019-01-15T03:46:24.417Z,0
2019-01-15T03:47:33.605Z,0
2019-01-15T03:48:43.530Z,0
2019-01-15T03:49:53.461Z,0
2019-01-15T03:51:03.145Z,0
2019-01-15T03:52:12.832Z,0
2019-01-15T03:53:22.515Z,0
2019-01-15T03:54:32.442Z,0
2019-01-15T03:55:42.370Z,0
2019-01-15T03:56:52.050Z,0
2019-01-15T03:58:01.980Z,0
2019-01-15T03:59:11.918Z,0
2019-01-15T04:00:21.596Z,0
2019-01-15T04:01:30.782Z,0
2019-01-15T04:02:40.457Z,0
2019-01-15T04:03:49.899Z,0
2019-01-15T04:04:59.323Z,0
2019-01-15T04:06:08.997Z,0
2019-01-15T04:07:18.180Z,0
2019-01-15T04:08:27.357Z,0
2019-01-15T04:09:37.037Z,0
2019-01-15T04:10:46.728Z,0
2019-01-15T04:11:56.176Z,0
2019-01-15T04:13:13.563Z,0
2019-01-15T04:14:22.994Z,0
2019-01-15T04:15:32.676Z,0
2019-01-15T04:16:42.104Z,0
2019-01-15T04:17:51.808Z,0
2019-01-15T04:19:01.516Z,0
2019-01-15T04:20:11.214Z,0
2019-01-15T04:21:20.894Z,0
2019-01-15T04:22:30.819Z,0
2019-01-15T04:23:40.516Z,0
2019-01-15T04:24:49.937Z,0
2019-01-15T04:25:59.620Z,0
2019-01-15T04:27:09.298Z,0
2019-01-15T04:28:18.729Z,0
2019-01-15T04:29:28.664Z,0
2019-01-15T04:30:38.342Z,0
2019-01-15T04:31:48.017Z,0
2019-01-15T04:32:57.192Z,0
2019-01-15T04:34:06.660Z,0
2019-01-15T04:35:16.623Z,0
2019-01-15T04:36:26.549Z,0
2019-01-15T04:37:35.971Z,0
2019-01-15T04:38:45.143Z,0
2019-01-15T04:39:55.086Z,0
2019-01-15T04:41:04.509Z,0
2019-01-15T04:42:13.686Z,0
2019-01-15T04:43:29.140Z,0
2019-01-15T04:44:38.574Z,0
2019-01-15T04:45:48.242Z,0
2019-01-15T04:46:58.175Z,0
2019-01-15T04:48:07.863Z,0
2019-01-15T04:49:17.816Z,0
2019-01-15T04:50:27.767Z,0
2019-01-15T04:51:37.444Z,0
2019-01-15T04:52:47.410Z,0
2019-01-15T04:53:57.357Z,0
2019-01-15T04:55:07.042Z,0
2019-01-15T04:56:16.469Z,0
2019-01-15T04:57:26.402Z,0
2019-01-15T04:58:36.086Z,0
2019-01-15T04:59:46.014Z,0
2019-01-15T05:00:55.448Z,0
2019-01-15T05:02:05.368Z,0
2019-01-15T05:03:15.052Z,0
2019-01-15T05:04:25.003Z,0
2019-01-15T05:05:34.684Z,0
2019-01-15T05:06:44.131Z,0
2019-01-15T05:07:53.565Z,0
2019-01-15T05:09:03.237Z,0
2019-01-15T05:10:13.163Z,0
2019-01-15T05:11:22.837Z,0
2019-01-15T05:12:32.518Z,0
2019-01-15T05:13:42.445Z,0
2019-01-15T05:14:52.383Z,0
2019-01-15T05:16:02.315Z,0
2019-01-15T05:17:12.270Z,0
2019-01-15T05:18:21.704Z,0
2019-01-15T05:19:31.719Z,0
2019-01-15T05:20:41.163Z,0
2019-01-15T05:21:51.103Z,0
2019-01-15T05:23:00.537Z,0
2019-01-15T05:24:10.470Z,0
2019-01-15T05:25:19.944Z,0
2019-01-15T05:26:30.740Z,0
2019-01-15T05:27:40.420Z,0
2019-01-15T05:28:50.361Z,0
2019-01-15T05:30:00.420Z,0
2019-01-15T05:31:09.920Z,0
2019-01-15T05:32:19.365Z,0
2019-01-15T05:33:29.058Z,0
2019-01-15T05:34:38.760Z,0
2019-01-15T05:35:48.443Z,0
2019-01-15T05:36:57.873Z,0
2019-01-15T05:38:07.559Z,0
2019-01-15T05:39:17.492Z,0
2019-01-15T05:40:26.948Z,0
2019-01-15T05:41:36.639Z,0
2019-01-15T05:42:46.319Z,0
2019-01-15T05:43:56.257Z,0
2019-01-15T05:45:05.936Z,0
2019-01-15T05:46:15.890Z,0
2019-01-15T05:47:25.816Z,0
2019-01-15T05:48:35.498Z,0
2019-01-15T05:49:44.866Z,0
2019-01-15T05:50:54.539Z,0
2019-01-15T05:52:04.248Z,0
2019-01-15T05:53:13.932Z,0
2019-01-15T05:54:23.869Z,0
2019-01-15T05:55:33.802Z,0
2019-01-15T05:56:43.743Z,0
2019-01-15T05:57:53.423Z,0
2019-01-15T05:59:02.845Z,0
2019-01-15T06:00:12.517Z,0
2019-01-15T06:01:22.197Z,0
2019-01-15T06:02:31.619Z,0
2019-01-15T06:03:41.290Z,0
2019-01-15T06:04:50.480Z,0
2019-01-15T06:06:00.401Z,0
2019-01-15T06:07:10.329Z,0
2019-01-15T06:08:20.258Z,0
2019-01-15T06:09:29.440Z,0
2019-01-15T06:10:38.621Z,0
2019-01-15T06:11:48.310Z,0
2019-01-15T06:12:57.979Z,0
2019-01-15T06:14:07.651Z,0
2019-01-15T06:15:16.825Z,0
2019-01-15T06:16:26.506Z,0
2019-01-15T06:17:36.198Z,0
2019-01-15T06:18:46.127Z,0
2019-01-15T06:19:55.800Z,0
2019-01-15T06:21:05.262Z,0
2019-01-15T06:22:14.690Z,0
2019-01-15T06:23:24.611Z,0
2019-01-15T06:24:34.032Z,0
2019-01-15T06:25:43.496Z,0
2019-01-15T06:26:53.433Z,0
2019-01-15T06:28:02.511Z,0
2019-01-15T06:29:12.442Z,0
2019-01-15T06:30:21.867Z,0
2019-01-15T06:31:31.541Z,0
2019-01-15T06:32:41.222Z,0
2019-01-15T06:33:51.168Z,0
2019-01-15T06:35:00.856Z,0
2019-01-15T06:36:10.789Z,0
2019-01-15T06:37:20.475Z,0
2019-01-15T06:38:30.412Z,0
2019-01-15T06:39:40.097Z,0
2019-01-15T06:40:49.780Z,0
2019-01-15T06:41:59.457Z,0
2019-01-15T06:43:10.753Z,0
2019-01-15T06:44:20.187Z,0
2019-01-15T06:45:29.867Z,0
2019-01-15T06:46:39.543Z,0
2019-01-15T06:47:49.215Z,0
2019-01-15T06:48:58.898Z,0
2019-01-15T06:50:08.831Z,0
2019-01-15T06:51:18.263Z,0
2019-01-15T06:52:27.438Z,0
2019-01-15T06:53:37.112Z,0
2019-01-15T06:54:46.541Z,0
2019-01-15T06:55:55.974Z,0
2019-01-15T06:57:05.670Z,0
2019-01-15T06:58:15.361Z,0
2019-01-15T06:59:24.803Z,0
2019-01-15T07:00:33.993Z,0
2019-01-15T07:01:43.915Z,0
2019-01-15T07:02:53.591Z,0
2019-01-15T07:04:03.015Z,0
2019-01-15T07:05:14.190Z,0
2019-01-15T07:06:24.215Z,0
2019-01-15T07:07:33.645Z,0
2019-01-15T07:08:43.323Z,0
2019-01-15T07:09:53.251Z,0
2019-01-15T07:11:02.681Z,0
2019-01-15T07:12:12.844Z,0
2019-01-15T07:13:22.270Z,0
2019-01-15T07:14:31.204Z,0
2019-01-15T07:15:41.143Z,0
2019-01-15T07:16:50.815Z,0
2019-01-15T07:18:00.540Z,0
2019-01-15T07:19:09.975Z,0
2019-01-15T07:20:19.409Z,0
2019-01-15T07:21:28.636Z,0
2019-01-15T07:22:38.316Z,0
2019-01-15T07:23:47.988Z,0
2019-01-15T07:24:57.677Z,0
2019-01-15T07:26:07.354Z,0
2019-01-15T07:27:16.528Z,0
2019-01-15T07:28:25.955Z,0
2019-01-15T07:29:35.634Z,0
2019-01-15T07:30:45.061Z,0
2019-01-15T07:31:54.747Z,5
2019-01-15T07:33:05.009Z,5
2019-01-15T07:34:14.936Z,5
2019-01-15T07:35:24.360Z,0
2019-01-15T07:36:34.282Z,0
2019-01-15T07:37:44.216Z,5
2019-01-15T07:38:53.888Z,5
2019-01-15T07:40:03.314Z,5
2019-01-15T07:41:12.742Z,5
2019-01-15T07:42:22.423Z,5
2019-01-15T07:43:31.852Z,5
2019-01-15T07:44:41.779Z,5
2019-01-15T07:45:51.454Z,5
2019-01-15T07:47:00.877Z,10
2019-01-15T07:48:10.807Z,10
2019-01-15T07:49:20.478Z,10
2019-01-15T07:50:30.406Z,10
2019-01-15T07:51:40.083Z,10
2019-01-15T07:52:49.267Z,10
2019-01-15T07:53:58.694Z,10
2019-01-15T07:55:09.430Z,10
2019-01-15T07:56:19.106Z,10
2019-01-15T07:57:28.789Z,10
2019-01-15T07:58:38.465Z,10
2019-01-15T07:59:47.896Z,15
2019-01-15T08:00:57.073Z,15
2019-01-15T08:02:06.505Z,15
2019-01-15T08:03:15.683Z,20
2019-01-15T08:04:25.614Z,15
2019-01-15T08:05:35.536Z,10
2019-01-15T08:06:45.207Z,10
2019-01-15T08:07:54.894Z,10
2019-01-15T08:09:04.817Z,10
2019-01-15T08:10:14.745Z,10
2019-01-15T08:11:24.170Z,15
2019-01-15T08:12:33.845Z,10
2019-01-15T08:13:43.519Z,10
2019-01-15T08:14:52.961Z,15
2019-01-15T08:16:03.705Z,15
2019-01-15T08:17:13.635Z,15
2019-01-15T08:18:23.574Z,10
2019-01-15T08:19:33.506Z,10
2019-01-15T08:20:43.205Z,10
2019-01-15T08:21:52.894Z,15
2019-01-15T08:23:02.578Z,20
2019-01-15T08:24:12.294Z,20
2019-01-15T08:25:21.723Z,20
2019-01-15T08:26:31.154Z,30
2019-01-15T08:27:40.843Z,35
2019-01-15T08:28:50.526Z,25
2019-01-15T08:30:00.207Z,25
2019-01-15T08:31:09.647Z,20
2019-01-15T08:32:19.074Z,15
2019-01-15T08:33:29.018Z,20
2019-01-15T08:34:38.949Z,15
2019-01-15T08:35:48.877Z,15
2019-01-15T08:36:58.302Z,20
2019-01-15T08:38:07.976Z,20
2019-01-15T08:39:17.404Z,20
2019-01-15T08:40:27.136Z,25
2019-01-15T08:41:37.054Z,30
2019-01-15T08:42:46.734Z,30
2019-01-15T08:43:56.470Z,30
2019-01-15T08:45:06.160Z,40
2019-01-15T08:46:16.091Z,50
2019-01-15T08:47:26.016Z,50
2019-01-15T08:48:35.697Z,45
2019-01-15T08:49:45.629Z,40
2019-01-15T08:50:55.063Z,35
2019-01-15T08:52:04.993Z,35
2019-01-15T08:53:14.672Z,30
2019-01-15T08:54:24.096Z,25
2019-01-15T08:55:34.029Z,30
2019-01-15T08:56:43.956Z,25
2019-01-15T08:57:53.390Z,30
2019-01-15T08:59:03.072Z,35
2019-01-15T09:00:12.756Z,40
2019-01-15T09:01:22.689Z,35
2019-01-15T09:02:32.118Z,35
2019-01-15T09:03:41.797Z,35
2019-01-15T09:04:51.727Z,30
2019-01-15T09:06:01.403Z,35
2019-01-15T09:07:10.838Z,40
2019-01-15T09:08:20.629Z,50
2019-01-15T09:09:30.100Z,60
2019-01-15T09:10:39.777Z,50
2019-01-15T09:11:49.204Z,35
2019-01-15T09:12:58.631Z,30
2019-01-15T09:14:08.374Z,30
2019-01-15T09:15:18.132Z,45
2019-01-15T09:16:27.613Z,50
2019-01-15T09:17:36.786Z,60
2019-01-15T09:18:46.626Z,60
2019-01-15T09:19:55.890Z,60
2019-01-15T09:21:05.070Z,50
2019-01-15T09:22:14.502Z,55
2019-01-15T09:23:24.308Z,60
2019-01-15T09:24:33.516Z,45
2019-01-15T09:25:42.946Z,45
2019-01-15T09:26:52.619Z,60
2019-01-15T09:28:02.550Z,70
2019-01-15T09:29:12.385Z,60
2019-01-15T09:30:22.362Z,60
2019-01-15T09:31:32.053Z,60
2019-01-15T09:32:41.736Z,65
2019-01-15T09:33:51.677Z,75
2019-01-15T09:35:00.863Z,60
2019-01-15T09:36:10.546Z,65
2019-01-15T09:37:20.466Z,55
2019-01-15T09:38:30.397Z,50
2019-01-15T09:39:40.320Z,45
2019-01-15T09:40:49.996Z,55
2019-01-15T09:41:59.675Z,50
2019-01-15T09:43:09.357Z,40
2019-01-15T09:44:18.834Z,50
2019-01-15T09:45:28.011Z,50
2019-01-15T09:46:37.949Z,50
2019-01-15T09:47:47.875Z,45
2019-01-15T09:48:57.797Z,45
2019-01-15T09:50:07.729Z,40
2019-01-15T09:51:17.155Z,45
2019-01-15T09:52:31.089Z,35
2019-01-15T09:53:40.517Z,45
2019-01-15T09:54:50.450Z,45
2019-01-15T09:55:59.882Z,40
2019-01-15T09:57:09.559Z,45
2019-01-15T09:58:19.488Z,45
2019-01-15T09:59:29.422Z,45
2019-01-15T10:00:38.849Z,55
2019-01-15T10:01:48.782Z,70
2019-01-15T10:02:58.460Z,55
2019-01-15T10:04:08.140Z,65
2019-01-15T10:05:17.571Z,60
2019-01-15T10:06:27.003Z,50
2019-01-15T10:07:36.937Z,55
2019-01-15T10:08:46.858Z,65
2019-01-15T10:09:56.289Z,75
2019-01-15T10:11:05.978Z,80
2019-01-15T10:12:15.898Z,70
2019-01-15T10:13:25.822Z,70
2019-01-15T10:14:41.153Z,65
2019-01-15T10:15:50.775Z,70
2019-01-15T10:17:00.475Z,75
2019-01-15T10:18:10.409Z,75
2019-01-15T10:19:19.586Z,80
2019-01-15T10:20:29.271Z,75
2019-01-15T10:21:39.840Z,85
2019-01-15T10:22:49.838Z,100
2019-01-15T10:23:59.767Z,110
2019-01-15T10:25:09.443Z,90
2019-01-15T10:26:19.117Z,110
2019-01-15T10:27:29.037Z,110
2019-01-15T10:28:38.462Z,100
2019-01-15T10:29:48.140Z,95
2019-01-15T10:30:58.064Z,100
2019-01-15T10:32:07.741Z,90
2019-01-15T10:33:17.663Z,85
2019-01-15T10:34:27.349Z,90
2019-01-15T10:35:37.130Z,70
2019-01-15T10:36:46.878Z,75
2019-01-15T10:37:56.810Z,60
2019-01-15T10:39:06.240Z,65
2019-01-15T10:40:15.661Z,75
2019-01-15T10:41:25.591Z,70
2019-01-15T10:42:35.264Z,75
2019-01-15T10:43:44.942Z,70
2019-01-15T10:44:57.913Z,70
2019-01-15T10:46:07.603Z,75
2019-01-15T10:47:17.274Z,70
2019-01-15T10:48:26.705Z,75
2019-01-15T10:49:36.641Z,65
2019-01-15T10:50:46.063Z,75
2019-01-15T10:51:55.492Z,60
2019-01-15T10:53:05.417Z,65
2019-01-15T10:54:14.847Z,55
2019-01-15T10:55:24.534Z,55
2019-01-15T10:56:33.965Z,50
2019-01-15T10:57:43.894Z,50
2019-01-15T10:58:53.319Z,50
2019-01-15T11:00:02.989Z,50
2019-01-15T11:01:12.928Z,55
2019-01-15T11:02:22.868Z,55
2019-01-15T11:03:32.547Z,50
2019-01-15T11:04:41.972Z,50
2019-01-15T11:05:51.653Z,50
2019-01-15T11:07:01.335Z,50
2019-01-15T11:08:10.565Z,45
2019-01-15T11:09:19.994Z,50
2019-01-15T11:10:29.921Z,50
2019-01-15T11:11:39.843Z,50
2019-01-15T11:12:49.519Z,55
2019-01-15T11:13:59.198Z,55
2019-01-15T11:15:08.895Z,55
2019-01-15T11:16:18.634Z,55
2019-01-15T11:17:28.563Z,55
2019-01-15T11:18:39.503Z,55
2019-01-15T11:19:49.032Z,60
2019-01-15T11:20:58.466Z,50
2019-01-15T11:22:08.148Z,55
2019-01-15T11:23:18.084Z,65
2019-01-15T11:24:27.814Z,55
2019-01-15T11:25:37.755Z,55
2019-01-15T11:26:47.685Z,55
2019-01-15T11:27:57.360Z,70
2019-01-15T11:29:07.049Z,65
2019-01-15T11:30:16.728Z,65
2019-01-15T11:31:26.653Z,60
2019-01-15T11:32:36.082Z,55
2019-01-15T11:33:45.256Z,50
2019-01-15T11:34:54.929Z,55
2019-01-15T11:36:04.603Z,50
2019-01-15T11:37:14.279Z,55
2019-01-15T11:38:24.213Z,55
2019-01-15T11:39:33.888Z,55
2019-01-15T11:40:43.310Z,45
2019-01-15T11:41:53.235Z,55
2019-01-15T11:43:02.914Z,65
2019-01-15T11:44:12.592Z,65
2019-01-15T11:45:22.274Z,65
2019-01-15T11:46:31.700Z,65
2019-01-15T11:47:41.384Z,60
2019-01-15T11:48:51.062Z,70
2019-01-15T11:50:01.026Z,70
2019-01-15T11:51:10.475Z,65
2019-01-15T11:52:20.150Z,65
2019-01-15T11:53:29.846Z,50
2019-01-15T11:54:39.828Z,55
2019-01-15T11:55:49.517Z,55
2019-01-15T11:56:59.448Z,50
2019-01-15T11:58:09.376Z,45
2019-01-15T11:59:19.307Z,45
2019-01-15T12:00:28.741Z,45
2019-01-15T12:01:38.687Z,50
2019-01-15T12:02:48.363Z,50
2019-01-15T12:03:58.039Z,60
2019-01-15T12:05:07.481Z,60
2019-01-15T12:06:16.699Z,65
2019-01-15T12:07:26.374Z,60
2019-01-15T12:08:36.054Z,60
2019-01-15T12:09:45.736Z,60
2019-01-15T12:10:55.699Z,65
2019-01-15T12:12:05.121Z,70
2019-01-15T12:13:14.800Z,70
2019-01-15T12:14:24.481Z,65
2019-01-15T12:15:33.960Z,70
2019-01-15T12:16:43.881Z,65
2019-01-15T12:17:53.562Z,65
2019-01-15T12:19:02.988Z,60
2019-01-15T12:20:12.916Z,60
2019-01-15T12:21:22.594Z,65
2019-01-15T12:22:31.794Z,60
2019-01-15T12:23:41.220Z,55
2019-01-15T12:24:50.649Z,65
2019-01-15T12:26:00.073Z,60
2019-01-15T12:27:09.747Z,60
2019-01-15T12:28:19.511Z,60
2019-01-15T12:29:29.206Z,60
2019-01-15T12:30:39.126Z,50
2019-01-15T12:31:48.083Z,60
2019-01-15T12:32:58.012Z,60
2019-01-15T12:34:07.697Z,55
2019-01-15T12:35:17.635Z,50
2019-01-15T12:36:27.290Z,45
2019-01-15T12:37:36.990Z,40
2019-01-15T12:38:46.673Z,45
2019-01-15T12:39:56.095Z,45
2019-01-15T12:41:06.033Z,45
2019-01-15T12:42:15.211Z,45
2019-01-15T12:43:25.170Z,45
2019-01-15T12:44:35.096Z,50
2019-01-15T12:45:44.535Z,60
2019-01-15T12:46:54.210Z,70
2019-01-15T12:48:04.135Z,70
2019-01-15T12:49:13.838Z,65
2019-01-15T12:50:23.267Z,75
2019-01-15T12:51:32.946Z,80
2019-01-15T12:52:42.626Z,80
2019-01-15T12:53:52.305Z,80
2019-01-15T12:55:01.978Z,80
2019-01-15T12:56:11.919Z,80
2019-01-15T12:57:28.314Z,75
2019-01-15T12:58:38.244Z,80
2019-01-15T12:59:47.922Z,70
2019-01-15T13:00:57.600Z,75
2019-01-15T13:02:07.527Z,70
2019-01-15T13:03:16.962Z,65
2019-01-15T13:04:26.641Z,70
2019-01-15T13:05:36.324Z,55
2019-01-15T13:06:46.258Z,55
2019-01-15T13:07:55.941Z,50
2019-01-15T13:09:05.620Z,65
2019-01-15T13:10:14.802Z,55
2019-01-15T13:11:24.499Z,45
2019-01-15T13:12:33.425Z,40
2019-01-15T13:13:43.105Z,40
2019-01-15T13:14:52.580Z,40
2019-01-15T13:16:02.287Z,40
2019-01-15T13:17:12.026Z,35
2019-01-15T13:18:21.759Z,35
2019-01-15T13:19:31.746Z,40
2019-01-15T13:20:41.199Z,45
2019-01-15T13:21:50.645Z,45
2019-01-15T13:23:00.139Z,40
2019-01-15T13:24:09.444Z,40
2019-01-15T13:25:19.183Z,40
2019-01-15T13:26:28.954Z,35
2019-01-15T13:27:38.697Z,35
2019-01-15T13:28:48.024Z,35
2019-01-15T13:29:57.743Z,35
2019-01-15T13:31:07.039Z,35
2019-01-15T13:32:16.890Z,35
2019-01-15T13:33:26.859Z,35
2019-01-15T13:34:36.796Z,40
2019-01-15T13:35:45.976Z,35
2019-01-15T13:36:55.908Z,40
2019-01-15T13:38:05.832Z,40
2019-01-15T13:39:15.755Z,35
2019-01-15T13:40:25.677Z,35
2019-01-15T13:41:35.106Z,35
2019-01-15T13:42:44.785Z,30
2019-01-15T13:43:54.471Z,40
2019-01-15T13:45:04.395Z,40
2019-01-15T13:46:13.841Z,45
2019-01-15T13:47:23.023Z,45
2019-01-15T13:48:32.701Z,40
2019-01-15T13:49:42.710Z,40
2019-01-15T13:50:52.392Z,35
2019-01-15T13:52:01.818Z,35
2019-01-15T13:53:10.995Z,35
2019-01-15T13:54:20.174Z,30
2019-01-15T13:55:30.524Z,30
2019-01-15T13:56:40.202Z,25
2019-01-15T13:57:49.886Z,25
2019-01-15T13:58:59.316Z,30
2019-01-15T14:00:08.741Z,25
2019-01-15T14:01:18.181Z,25
2019-01-15T14:02:27.879Z,25
2019-01-15T14:03:37.552Z,30
2019-01-15T14:04:47.484Z,30
2019-01-15T14:05:58.742Z,40
2019-01-15T14:07:08.190Z,45
2019-01-15T14:08:17.623Z,40
2019-01-15T14:09:26.563Z,40
2019-01-15T14:10:36.242Z,40
2019-01-15T14:11:45.941Z,40
2019-01-15T14:12:55.688Z,35
2019-01-15T14:14:05.115Z,40
2019-01-15T14:15:14.547Z,35
2019-01-15T14:16:24.281Z,30
2019-01-15T14:17:33.701Z,35
2019-01-15T14:18:43.139Z,45
2019-01-15T14:19:52.814Z,55
2019-01-15T14:21:02.239Z,50
2019-01-15T14:22:13.201Z,50
2019-01-15T14:23:22.627Z,40
2019-01-15T14:24:32.056Z,40
2019-01-15T14:25:41.736Z,45
2019-01-15T14:26:51.435Z,35
2019-01-15T14:28:01.109Z,30
2019-01-15T14:29:10.538Z,30
2019-01-15T14:30:20.214Z,30
2019-01-15T14:31:30.201Z,30
2019-01-15T14:32:39.883Z,25
2019-01-15T14:33:49.582Z,30
2019-01-15T14:34:59.266Z,35
2019-01-15T14:36:08.976Z,30
2019-01-15T14:37:17.908Z,30
2019-01-15T14:38:27.841Z,30
2019-01-15T14:39:37.531Z,35
2019-01-15T14:40:46.963Z,30
2019-01-15T14:41:56.637Z,30
2019-01-15T14:43:06.322Z,30
2019-01-15T14:44:16.010Z,25
2019-01-15T14:45:25.196Z,30
2019-01-15T14:46:34.630Z,25
2019-01-15T14:47:44.317Z,25
2019-01-15T14:48:53.745Z,25
2019-01-15T14:50:03.678Z,25
2019-01-15T14:51:13.113Z,30
2019-01-15T14:52:22.795Z,25
2019-01-15T14:53:32.479Z,20
2019-01-15T14:54:42.426Z,25
2019-01-15T14:55:51.857Z,20
2019-01-15T14:57:01.287Z,20
2019-01-15T14:58:11.214Z,20
2019-01-15T14:59:20.647Z,20
2019-01-15T15:00:30.086Z,20
2019-01-15T15:01:39.517Z,20
2019-01-15T15:02:48.703Z,20
2019-01-15T15:03:58.144Z,20
2019-01-15T15:05:08.083Z,15
2019-01-15T15:06:18.032Z,20
2019-01-15T15:07:27.702Z,15
2019-01-15T15:08:37.408Z,15
2019-01-15T15:09:47.366Z,15
2019-01-15T15:10:57.297Z,15
2019-01-15T15:12:07.287Z,10
2019-01-15T15:13:16.475Z,10
2019-01-15T15:14:26.151Z,10
2019-01-15T15:15:35.856Z,10
2019-01-15T15:16:45.539Z,10
2019-01-15T15:17:54.976Z,10
2019-01-15T15:19:04.646Z,5
2019-01-15T15:20:14.338Z,5
2019-01-15T15:21:24.022Z,5
2019-01-15T15:22:33.961Z,5
2019-01-15T15:23:43.398Z,5
2019-01-15T15:24:53.326Z,5
2019-01-15T15:26:03.251Z,5
2019-01-15T15:27:12.926Z,5
2019-01-15T15:28:22.641Z,5
2019-01-15T15:29:32.371Z,5
2019-01-15T15:30:41.802Z,5
2019-01-15T15:31:51.476Z,5
2019-01-15T15:33:01.153Z,0
2019-01-15T15:34:11.082Z,0
2019-01-15T15:35:20.809Z,0
2019-01-15T15:36:30.504Z,0
2019-01-15T15:37:40.460Z,0
2019-01-15T15:38:50.136Z,0
2019-01-15T15:39:59.814Z,0
2019-01-15T15:41:09.248Z,0
2019-01-15T15:42:18.923Z,0
2019-01-15T15:43:28.355Z,0
2019-01-15T15:44:38.045Z,0
2019-01-15T15:45:47.470Z,0
2019-01-15T15:46:57.151Z,0
2019-01-15T15:48:06.828Z,0
2019-01-15T15:49:16.507Z,0
2019-01-15T15:50:26.438Z,0
2019-01-15T15:51:35.868Z,0
2019-01-15T15:52:45.298Z,0
2019-01-15T15:53:54.510Z,0
2019-01-15T15:55:04.188Z,0
2019-01-15T15:56:14.595Z,0
2019-01-15T15:57:24.272Z,0
2019-01-15T15:58:33.455Z,0
2019-01-15T15:59:42.887Z,0
2019-01-15T16:00:52.816Z,0
2019-01-15T16:02:02.504Z,0
2019-01-15T16:03:12.183Z,0
2019-01-15T16:04:23.060Z,0
2019-01-15T16:05:32.980Z,0
2019-01-15T16:06:42.905Z,0
2019-01-15T16:07:52.574Z,0
2019-01-15T16:09:02.253Z,0
2019-01-15T16:10:11.945Z,0
2019-01-15T16:11:21.879Z,0
2019-01-15T16:12:31.570Z,0
2019-01-15T16:13:41.244Z,0
2019-01-15T16:14:50.686Z,0
2019-01-15T16:15:59.867Z,0
2019-01-15T16:17:09.541Z,0
2019-01-15T16:18:19.467Z,0
2019-01-15T16:19:28.893Z,0
2019-01-15T16:20:38.571Z,0
2019-01-15T16:21:47.996Z,0
2019-01-15T16:22:57.671Z,0
2019-01-15T16:24:07.390Z,0
2019-01-15T16:25:17.078Z,0
2019-01-15T16:26:26.759Z,0
2019-01-15T16:27:36.197Z,0
2019-01-15T16:28:45.871Z,0
2019-01-15T16:29:55.302Z,0
2019-01-15T16:31:04.977Z,0
2019-01-15T16:32:14.400Z,0
2019-01-15T16:33:24.080Z,0
2019-01-15T16:34:33.507Z,0
2019-01-15T16:35:42.941Z,0
2019-01-15T16:36:52.402Z,0
2019-01-15T16:38:02.329Z,0
2019-01-15T16:39:11.516Z,0
2019-01-15T16:40:20.943Z,0
2019-01-15T16:41:30.621Z,0
2019-01-15T16:42:40.303Z,0
2019-01-15T16:43:49.987Z,0
2019-01-15T16:44:59.670Z,0
2019-01-15T16:46:09.214Z,0
2019-01-15T16:47:18.893Z,0
2019-01-15T16:48:28.571Z,0
2019-01-15T16:49:38.010Z,0
2019-01-15T16:50:47.201Z,0
2019-01-15T16:51:56.629Z,0
2019-01-15T16:53:06.056Z,0
2019-01-15T16:54:15.730Z,0
2019-01-15T16:55:25.410Z,0